createdAt,value
2022-09-25T00:02:08.309Z,16.48
2022-09-25T00:04:35.217Z,17.08
2022-09-25T00:07:08.282Z,15.45
2022-09-25T00:09:35.176Z,17.42
2022-09-25T00:12:09.269Z,18.30
2022-09-25T00:14:36.139Z,16.60
2022-09-25T00:17:03.112Z,17.27
2022-09-25T00:19:36.362Z,16.90
2022-09-25T00:22:03.197Z,17.38
2022-09-25T00:24:36.305Z,18.05
2022-09-25T00:27:09.282Z,18.05
2022-09-25T00:29:37.623Z,16.85
2022-09-25T00:32:12.289Z,16.73
2022-09-25T00:34:39.369Z,16.15
2022-09-25T00:37:13.356Z,17.73
2022-09-25T00:39:40.369Z,16.00
2022-09-25T00:42:13.291Z,17.25
2022-09-25T00:44:57.392Z,16.63
2022-09-25T00:48:01.327Z,16.85
2022-09-25T00:50:40.065Z,17.27
2022-09-25T00:53:19.327Z,18.27
2022-09-25T00:55:46.214Z,18.35
2022-09-25T00:58:21.353Z,18.70
2022-09-25T01:00:48.205Z,17.63
2022-09-25T01:03:21.327Z,18.45
2022-09-25T01:05:48.387Z,17.50
2022-09-25T01:08:26.338Z,18.90
2022-09-25T01:10:53.175Z,18.52
2022-09-25T01:13:20.190Z,18.02
2022-09-25T01:16:15.396Z,18.77
2022-09-25T01:19:07.374Z,18.02
2022-09-25T01:22:25.962Z,18.23
2022-09-25T01:25:48.342Z,18.90
2022-09-25T01:28:42.421Z,19.05
2022-09-25T01:34:33.377Z,19.52
2022-09-25T01:37:16.379Z,18.67
2022-09-25T01:39:58.374Z,18.30
2022-09-25T01:42:33.536Z,20.38
2022-09-25T01:45:15.357Z,19.70
2022-09-25T01:47:48.376Z,18.55
2022-09-25T01:50:37.384Z,18.98
2022-09-25T01:53:07.694Z,18.35
2022-09-25T01:55:46.353Z,18.95
2022-09-25T01:58:25.541Z,18.15
2022-09-25T02:01:06.444Z,18.40
2022-09-25T02:03:45.000Z,18.63
2022-09-25T02:06:21.344Z,20.02
2022-09-25T02:08:53.223Z,18.75
2022-09-25T02:11:26.372Z,19.50
2022-09-25T02:14:06.966Z,18.25
2022-09-25T02:16:45.404Z,18.70
2022-09-25T02:19:12.414Z,19.25
2022-09-25T02:22:04.386Z,20.23
2022-09-25T02:25:32.075Z,19.73
2022-09-25T02:28:05.423Z,18.35
2022-09-25T02:30:32.356Z,18.83
2022-09-25T02:33:05.367Z,18.02
2022-09-25T02:35:32.888Z,19.30
2022-09-25T02:38:06.381Z,19.05
2022-09-25T02:41:01.040Z,19.80
2022-09-25T02:43:52.375Z,20.05
2022-09-25T02:46:35.916Z,19.35
2022-09-25T02:49:24.377Z,19.13
2022-09-25T02:52:28.640Z,17.98
2022-09-25T02:55:13.397Z,17.83
2022-09-25T02:57:55.597Z,18.13
2022-09-25T03:00:29.413Z,18.88
2022-09-25T03:02:58.509Z,17.48
2022-09-25T03:05:32.389Z,17.73
2022-09-25T03:08:05.421Z,17.45
2022-09-25T03:10:33.219Z,18.73
2022-09-25T03:13:27.439Z,17.35
2022-09-25T03:16:09.488Z,18.13
2022-09-25T03:18:42.375Z,17.88
2022-09-25T03:21:15.407Z,17.85
2022-09-25T03:23:42.239Z,18.05
2022-09-25T03:26:15.446Z,17.70
2022-09-25T03:28:42.387Z,17.77
2022-09-25T03:31:11.393Z,19.08
2022-09-25T03:33:49.399Z,18.08
2022-09-25T03:36:18.917Z,17.05
2022-09-25T03:38:54.447Z,18.10
2022-09-25T03:41:22.194Z,17.15
2022-09-25T03:43:56.387Z,18.02
2022-09-25T03:46:29.667Z,18.63
2022-09-25T03:49:03.400Z,18.33
2022-09-25T03:51:30.942Z,17.70
2022-09-25T03:54:04.464Z,17.05
2022-09-25T03:56:31.359Z,19.10
2022-09-25T03:58:58.376Z,19.27
2022-09-25T04:01:32.529Z,16.75
2022-09-25T04:03:59.420Z,17.85
2022-09-25T04:06:33.434Z,16.67
2022-09-25T04:09:00.262Z,16.20
2022-09-25T04:11:27.146Z,16.58
2022-09-25T04:14:00.416Z,18.40
2022-09-25T04:16:33.493Z,17.63
2022-09-25T04:19:06.449Z,18.60
2022-09-25T04:21:33.322Z,19.13
2022-09-25T04:24:06.509Z,19.42
2022-09-25T04:26:33.554Z,20.23
2022-09-25T04:29:07.447Z,20.77
2022-09-25T04:31:34.393Z,20.48
2022-09-25T04:34:07.473Z,19.63
2022-09-25T04:36:40.444Z,20.38
2022-09-25T04:39:13.440Z,19.45
2022-09-25T04:41:46.455Z,20.65
2022-09-25T04:44:13.407Z,20.58
2022-09-25T04:46:46.508Z,18.95
2022-09-25T04:49:20.417Z,19.20
2022-09-25T04:51:47.262Z,19.67
2022-09-25T04:54:14.204Z,21.02
2022-09-25T04:56:49.469Z,20.15
2022-09-25T04:59:16.353Z,20.13
2022-09-25T05:01:49.526Z,21.00
2022-09-25T05:04:16.551Z,21.17
2022-09-25T05:06:50.486Z,20.27
2022-09-25T05:09:17.504Z,19.83
2022-09-25T05:11:46.407Z,19.88
2022-09-25T05:14:19.455Z,20.00
2022-09-25T05:16:46.735Z,23.80
2022-09-25T05:19:20.482Z,25.80
2022-09-25T05:21:53.487Z,22.02
2022-09-25T05:24:26.513Z,21.05
2022-09-25T05:26:53.390Z,20.85
2022-09-25T05:29:26.497Z,20.23
2022-09-25T05:31:53.474Z,20.23
2022-09-25T05:34:26.477Z,20.23
2022-09-25T05:36:53.348Z,18.77
2022-09-25T05:39:33.497Z,20.02
2022-09-25T05:42:00.391Z,21.65
2022-09-25T05:44:33.481Z,20.52
2022-09-25T05:47:06.489Z,21.38
2022-09-25T05:49:33.350Z,20.33
2022-09-25T05:52:06.486Z,20.67
2022-09-25T05:54:33.323Z,20.48
2022-09-25T05:57:06.486Z,19.58
2022-09-25T05:59:33.297Z,19.63
2022-09-25T06:02:06.627Z,20.40
2022-09-25T06:04:33.573Z,21.15
2022-09-25T06:07:06.511Z,19.25
2022-09-25T06:09:39.540Z,20.38
2022-09-25T06:12:06.437Z,19.52
2022-09-25T06:14:39.513Z,18.45
2022-09-25T06:17:06.382Z,20.02
2022-09-25T06:19:39.518Z,21.30
2022-09-25T06:22:06.402Z,20.08
2022-09-25T06:24:39.542Z,20.08
2022-09-25T06:27:07.241Z,20.95
2022-09-25T06:29:40.526Z,21.05
2022-09-25T06:32:13.533Z,22.00
2022-09-25T06:34:40.397Z,21.55
2022-09-25T06:37:07.233Z,21.15
2022-09-25T06:39:40.510Z,22.05
2022-09-25T06:42:07.394Z,23.95
2022-09-25T06:44:34.242Z,24.60
2022-09-25T06:47:07.511Z,22.88
2022-09-25T06:49:34.369Z,24.30
2022-09-25T06:52:07.627Z,23.80
2022-09-25T06:54:34.450Z,23.88
2022-09-25T06:57:07.538Z,22.48
2022-09-25T06:59:40.529Z,24.08
2022-09-25T07:02:09.225Z,23.90
2022-09-25T07:04:36.171Z,24.63
2022-09-25T07:07:09.543Z,24.30
2022-09-25T07:09:42.538Z,25.65
2022-09-25T07:12:09.400Z,25.33
2022-09-25T07:14:42.572Z,25.15
2022-09-25T07:17:09.669Z,23.08
2022-09-25T07:19:43.565Z,24.92
2022-09-25T07:22:16.559Z,21.30
2022-09-25T07:24:43.417Z,20.63
2022-09-25T07:27:16.565Z,21.08
2022-09-25T07:29:43.476Z,20.98
2022-09-25T07:32:16.535Z,19.25
2022-09-25T07:34:43.387Z,20.45
2022-09-25T07:37:16.558Z,19.42
2022-09-25T07:39:43.663Z,19.75
2022-09-25T07:42:17.583Z,18.85
2022-09-25T07:44:48.154Z,20.08
2022-09-25T07:47:15.759Z,18.88
2022-09-25T07:49:51.569Z,17.60
2022-09-25T07:52:24.613Z,18.55
2022-09-25T07:54:57.609Z,18.60
2022-09-25T07:57:24.540Z,17.90
2022-09-25T07:59:57.603Z,18.42
2022-09-25T08:02:24.615Z,20.05
2022-09-25T08:04:51.582Z,21.70
2022-09-25T08:07:24.598Z,19.42
2022-09-25T08:09:51.449Z,18.58
2022-09-25T08:12:24.595Z,19.23
2022-09-25T08:14:54.757Z,16.90
2022-09-25T08:17:28.578Z,16.75
2022-09-25T08:19:55.393Z,16.23
2022-09-25T08:22:28.884Z,17.65
2022-09-25T08:24:55.727Z,15.07
2022-09-25T08:27:29.604Z,12.80
2022-09-25T08:30:02.614Z,14.68
2022-09-25T08:32:35.620Z,12.75
2022-09-25T08:35:03.593Z,12.43
2022-09-25T08:37:30.541Z,12.63
2022-09-25T08:40:06.599Z,11.98
2022-09-25T08:42:36.921Z,12.77
2022-09-25T08:45:21.604Z,12.23
2022-09-25T08:47:51.179Z,10.88
2022-09-25T08:50:29.605Z,11.77
2022-09-25T08:56:01.636Z,11.32
2022-09-25T08:58:34.790Z,10.40
2022-09-25T09:01:11.672Z,10.05
2022-09-25T09:04:07.916Z,10.43
2022-09-25T09:06:41.630Z,10.82
2022-09-25T09:09:22.634Z,9.30
2022-09-25T09:12:05.003Z,10.98
2022-09-25T09:14:39.634Z,9.73
2022-09-25T09:17:15.178Z,9.05
2022-09-25T09:19:48.653Z,9.93
2022-09-25T09:22:19.304Z,9.50
2022-09-25T09:25:12.691Z,9.45
2022-09-25T09:28:10.643Z,10.18
2022-09-25T09:31:17.232Z,10.40
2022-09-25T09:35:01.170Z,10.07
2022-09-25T09:37:55.230Z,10.85
2022-09-25T09:41:02.664Z,9.13
2022-09-25T09:44:07.762Z,9.30
2022-09-25T09:46:44.240Z,9.70
2022-09-25T09:49:28.770Z,8.77
2022-09-25T09:52:22.084Z,8.48
2022-09-25T09:55:19.716Z,8.38
2022-09-25T09:57:52.327Z,8.95
2022-09-25T10:00:28.701Z,9.18
2022-09-25T10:03:00.868Z,8.02
2022-09-25T10:05:57.690Z,8.13
2022-09-25T10:08:30.653Z,7.75
2022-09-25T10:11:03.690Z,9.38
2022-09-25T10:13:33.947Z,8.90
2022-09-25T10:16:21.786Z,8.13
2022-09-25T10:18:57.269Z,8.38
2022-09-25T10:21:33.694Z,8.30
2022-09-25T10:24:00.790Z,8.57
2022-09-25T10:26:37.673Z,7.05
2022-09-25T10:29:08.238Z,8.73
2022-09-25T10:31:44.796Z,8.18
2022-09-25T10:34:14.658Z,7.13
2022-09-25T10:36:54.708Z,6.07
2022-09-25T10:39:45.295Z,5.43
2022-09-25T10:42:45.704Z,6.05
2022-09-25T10:45:40.742Z,6.30
2022-09-25T10:48:30.557Z,6.07
2022-09-25T10:51:16.717Z,4.85
2022-09-25T10:53:46.355Z,4.70
2022-09-25T10:56:31.725Z,6.03
2022-09-25T10:59:06.724Z,5.93
2022-09-25T11:01:37.261Z,6.57
2022-09-25T11:04:18.734Z,6.20
2022-09-25T11:06:48.540Z,5.72
2022-09-25T11:09:24.743Z,5.15
2022-09-25T11:11:53.759Z,4.40
2022-09-25T11:14:33.789Z,4.25
2022-09-25T11:17:05.209Z,4.50
2022-09-25T11:19:43.723Z,4.57
2022-09-25T11:22:16.198Z,4.55
2022-09-25T11:25:14.744Z,3.70
2022-09-25T11:28:03.164Z,2.95
2022-09-25T11:30:40.748Z,4.07
2022-09-25T11:33:41.848Z,4.82
2022-09-25T11:36:25.723Z,3.72
2022-09-25T11:38:58.783Z,4.32
2022-09-25T11:41:50.809Z,5.07
2022-09-25T11:44:40.217Z,3.80
2022-09-25T11:47:34.793Z,3.78
2022-09-25T11:50:01.677Z,3.58
2022-09-25T11:52:44.781Z,4.15
2022-09-25T11:55:20.422Z,3.95
2022-09-25T11:58:46.747Z,3.83
2022-09-25T12:02:10.775Z,3.00
2022-09-25T12:04:56.762Z,2.15
2022-09-25T12:07:42.022Z,2.60
2022-09-25T12:10:30.759Z,3.22
2022-09-25T12:13:25.002Z,2.70
2022-09-25T12:16:13.871Z,2.30
2022-09-25T12:19:27.033Z,2.38
2022-09-25T12:22:28.794Z,1.30
2022-09-25T12:25:11.135Z,1.80
2022-09-25T12:28:04.803Z,1.90
2022-09-25T12:31:04.823Z,1.77
2022-09-25T12:34:23.860Z,1.73
2022-09-25T12:37:31.814Z,1.90
2022-09-25T12:40:04.732Z,1.60
2022-09-25T12:43:37.815Z,1.85
2022-09-25T12:46:27.343Z,1.67
2022-09-25T12:49:14.770Z,1.80
2022-09-25T12:51:43.675Z,2.33
2022-09-25T12:54:43.840Z,2.03
2022-09-25T12:57:25.811Z,2.47
2022-09-25T13:00:20.299Z,2.20
2022-09-25T13:03:17.817Z,2.38
2022-09-25T13:06:23.850Z,2.40
2022-09-25T13:09:29.846Z,2.40
2022-09-25T13:12:01.200Z,4.20
2022-09-25T13:14:45.825Z,4.22
2022-09-25T13:17:13.284Z,4.05
2022-09-25T13:19:40.135Z,3.60
2022-09-25T13:22:30.817Z,3.70
2022-09-25T13:25:04.242Z,3.63
2022-09-25T13:27:46.805Z,5.47
2022-09-25T13:30:24.769Z,5.25
2022-09-25T13:33:00.051Z,4.13
2022-09-25T13:35:27.063Z,3.15
2022-09-25T13:38:17.876Z,3.80
2022-09-25T13:40:50.892Z,2.88
2022-09-25T13:43:22.769Z,3.22
2022-09-25T13:46:24.967Z,3.00
2022-09-25T13:48:52.227Z,2.42
2022-09-25T13:51:28.897Z,2.30
2022-09-25T13:54:04.200Z,2.88
2022-09-25T13:56:40.875Z,3.35
2022-09-25T13:59:10.578Z,3.00
2022-09-25T14:01:52.979Z,2.65
2022-09-25T14:04:31.751Z,3.80
2022-09-25T14:07:27.893Z,2.90
2022-09-25T14:09:56.582Z,2.40
2022-09-25T14:12:43.867Z,2.63
2022-09-25T14:15:30.150Z,1.77
2022-09-25T14:18:52.641Z,3.57
2022-09-25T14:21:21.822Z,3.00
2022-09-25T14:24:01.336Z,3.05
2022-09-25T14:26:28.862Z,2.70
2022-09-25T14:29:04.363Z,3.72
2022-09-25T14:31:40.884Z,2.85
2022-09-25T14:34:42.326Z,2.80
2022-09-25T14:37:31.776Z,2.15
2022-09-25T14:40:23.405Z,2.72
2022-09-25T14:43:37.346Z,3.00
2022-09-25T14:46:12.704Z,2.45
2022-09-25T14:48:57.306Z,2.80
2022-09-25T14:51:27.452Z,2.72
2022-09-25T14:54:12.431Z,2.90
2022-09-25T14:56:39.565Z,2.38
2022-09-25T14:59:11.459Z,2.28
2022-09-25T15:01:55.409Z,2.50
2022-09-25T15:04:33.408Z,2.10
2022-09-25T15:07:14.362Z,2.38
2022-09-25T15:09:45.778Z,1.80
2022-09-25T15:12:36.344Z,2.10
2022-09-25T15:15:13.833Z,1.88
2022-09-25T15:17:56.391Z,1.60
2022-09-25T15:20:34.025Z,1.75
2022-09-25T15:23:09.372Z,1.90
2022-09-25T15:25:45.112Z,2.08
2022-09-25T15:28:24.316Z,2.20
2022-09-25T15:31:01.879Z,2.25
2022-09-25T15:33:38.499Z,1.80
2022-09-25T15:36:25.790Z,2.20
2022-09-25T15:39:07.484Z,1.42
2022-09-25T15:41:41.373Z,1.88
2022-09-25T15:44:25.086Z,1.58
2022-09-25T15:47:02.382Z,1.90
2022-09-25T15:49:35.602Z,2.33
2022-09-25T15:52:30.342Z,2.20
2022-09-25T15:55:25.488Z,2.00
2022-09-25T15:57:53.316Z,2.10
2022-09-25T16:00:31.470Z,1.50
2022-09-25T16:03:02.940Z,1.50
2022-09-25T16:05:38.523Z,4.50
2022-09-25T16:08:24.364Z,4.78
2022-09-25T16:11:21.419Z,4.22
2022-09-25T16:13:50.647Z,5.97
2022-09-25T16:16:37.451Z,3.92
2022-09-25T16:19:26.955Z,2.53
2022-09-25T16:22:01.521Z,2.20
2022-09-25T16:24:29.309Z,2.05
2022-09-25T16:27:08.403Z,2.00
2022-09-25T16:29:39.552Z,2.45
2022-09-25T16:32:20.390Z,3.40
2022-09-25T16:35:01.892Z,4.60
2022-09-25T16:37:39.440Z,3.67
2022-09-25T16:40:18.619Z,3.03
2022-09-25T16:42:52.406Z,3.53
2022-09-25T16:45:24.402Z,3.30
2022-09-25T16:47:51.865Z,2.55
2022-09-25T16:50:26.402Z,2.47
2022-09-25T16:53:00.423Z,2.35
2022-09-25T16:55:34.434Z,2.83
2022-09-25T16:58:01.384Z,4.03
2022-09-25T17:00:35.472Z,3.55
2022-09-25T17:03:09.489Z,3.60
2022-09-25T17:05:36.549Z,3.10
2022-09-25T17:08:28.459Z,2.72
2022-09-25T17:11:02.528Z,3.40
2022-09-25T17:13:29.533Z,3.38
2022-09-25T17:15:56.717Z,2.22
2022-09-25T17:18:30.468Z,1.92
2022-09-25T17:21:14.423Z,2.30
2022-09-25T17:23:42.281Z,1.70
2022-09-25T17:26:27.460Z,1.90
2022-09-25T17:28:54.647Z,1.60
2022-09-25T17:31:28.493Z,2.05
2022-09-25T17:33:56.946Z,2.50
2022-09-25T17:36:23.940Z,1.92
2022-09-25T17:38:57.482Z,1.77
2022-09-25T17:41:29.206Z,1.67
2022-09-25T17:43:56.284Z,1.50
2022-09-25T17:46:29.521Z,1.55
2022-09-25T17:48:56.610Z,1.40
2022-09-25T17:51:25.579Z,1.15
2022-09-25T17:53:59.522Z,1.23
2022-09-25T17:56:33.459Z,1.15
2022-09-25T17:59:00.980Z,1.20
2022-09-25T18:01:39.680Z,1.20
2022-09-25T18:04:33.436Z,1.20
2022-09-25T18:07:06.462Z,1.40
2022-09-25T18:09:33.397Z,1.30
2022-09-25T18:12:07.487Z,1.17
2022-09-25T18:14:34.453Z,1.10
2022-09-25T18:17:07.505Z,1.38
2022-09-25T18:19:34.416Z,1.58
2022-09-25T18:22:07.455Z,1.38
2022-09-25T18:24:40.441Z,1.33
2022-09-25T18:27:13.472Z,1.50
2022-09-25T18:29:40.527Z,1.70
2022-09-25T18:32:13.494Z,1.63
2022-09-25T18:34:40.781Z,1.83
2022-09-25T18:37:14.479Z,1.83
2022-09-25T18:39:41.405Z,1.80
2022-09-25T18:42:14.465Z,2.10
2022-09-25T18:44:43.194Z,1.67
2022-09-25T18:47:11.288Z,1.67
2022-09-25T18:49:44.564Z,1.52
2022-09-25T18:52:11.688Z,1.52
2022-09-25T18:54:45.508Z,1.45
2022-09-25T18:57:12.781Z,1.40
2022-09-25T18:59:46.501Z,1.50
2022-09-25T19:02:26.108Z,1.80
2022-09-25T19:05:01.528Z,2.30
2022-09-25T19:07:29.105Z,2.33
2022-09-25T19:10:02.486Z,2.42
2022-09-25T19:12:29.361Z,2.20
2022-09-25T19:15:02.532Z,2.53
2022-09-25T19:17:29.384Z,3.05
2022-09-25T19:19:56.283Z,2.45
2022-09-25T19:22:29.542Z,2.80
2022-09-25T19:24:56.483Z,2.80
2022-09-25T19:27:29.577Z,1.95
2022-09-25T19:30:03.585Z,2.00
2022-09-25T19:32:30.483Z,2.50
2022-09-25T19:34:57.461Z,2.70
2022-09-25T19:37:30.505Z,2.08
2022-09-25T19:39:57.412Z,1.98
2022-09-25T19:42:30.534Z,2.40
2022-09-25T19:44:57.452Z,2.10
2022-09-25T19:47:24.412Z,3.05
2022-09-25T19:49:57.572Z,2.97
2022-09-25T19:52:24.525Z,2.47
2022-09-25T19:54:57.531Z,2.30
2022-09-25T19:57:24.511Z,2.63
2022-09-25T19:59:57.544Z,1.92
2022-09-25T20:02:24.622Z,2.78
2022-09-25T20:04:58.529Z,2.38
2022-09-25T20:07:25.515Z,2.10
2022-09-25T20:09:58.522Z,1.85
2022-09-25T20:12:25.393Z,1.90
2022-09-25T20:14:52.247Z,2.25
2022-09-25T20:17:25.627Z,2.55
2022-09-25T20:19:52.527Z,2.67
2022-09-25T20:22:25.573Z,2.70
2022-09-25T20:24:52.524Z,2.92
2022-09-25T20:27:23.077Z,2.88
2022-09-25T20:29:56.587Z,2.90
2022-09-25T20:32:23.491Z,2.50
2022-09-25T20:34:56.594Z,2.45
2022-09-25T20:37:23.540Z,2.83
2022-09-25T20:39:56.584Z,2.78
2022-09-25T20:42:23.489Z,3.03
2022-09-25T20:44:56.564Z,2.88
2022-09-25T20:47:23.484Z,2.45
2022-09-25T20:49:50.403Z,2.30
2022-09-25T20:52:23.577Z,2.45
2022-09-25T20:54:50.503Z,2.40
2022-09-25T20:57:23.569Z,2.80
2022-09-25T20:59:50.509Z,2.67
2022-09-25T21:02:23.640Z,2.58
2022-09-25T21:04:50.586Z,2.58
2022-09-25T21:07:24.562Z,2.80
2022-09-25T21:09:52.325Z,2.60
2022-09-25T21:12:25.574Z,2.67
2022-09-25T21:14:58.606Z,2.90
2022-09-25T21:17:25.550Z,3.03
2022-09-25T21:19:59.616Z,3.13
2022-09-25T21:22:26.517Z,2.83
2022-09-25T21:24:59.622Z,2.90
2022-09-25T21:27:26.562Z,2.50
2022-09-25T21:29:59.597Z,3.28
2022-09-25T21:32:28.532Z,3.22
2022-09-25T21:35:01.635Z,3.38
2022-09-25T21:37:28.555Z,3.63
2022-09-25T21:39:55.469Z,3.88
2022-09-25T21:42:29.775Z,3.83
2022-09-25T21:45:03.704Z,3.38
2022-09-25T21:47:30.669Z,3.67
2022-09-25T21:50:04.660Z,3.47
2022-09-25T21:52:31.628Z,3.92
2022-09-25T21:55:04.610Z,3.50
2022-09-25T21:57:37.594Z,3.97
2022-09-25T22:00:05.175Z,3.65
2022-09-25T22:02:39.376Z,3.38
2022-09-25T22:05:06.720Z,3.50
2022-09-25T22:07:40.557Z,4.03
2022-09-25T22:10:14.572Z,3.90
2022-09-25T22:12:41.473Z,3.72
2022-09-25T22:15:15.635Z,3.28
2022-09-25T22:17:48.614Z,3.33
2022-09-25T22:20:15.640Z,3.05
2022-09-25T22:22:48.625Z,3.20
2022-09-25T22:25:15.614Z,2.92
2022-09-25T22:27:48.644Z,3.47
2022-09-25T22:30:22.674Z,3.28
2022-09-25T22:32:49.685Z,3.10
2022-09-25T22:35:16.834Z,3.40
2022-09-25T22:37:50.684Z,3.30
2022-09-25T22:40:18.061Z,3.13
2022-09-25T22:42:51.630Z,3.10
2022-09-25T22:45:18.537Z,3.13
2022-09-25T22:47:45.438Z,3.60
2022-09-25T22:50:18.677Z,2.95
2022-09-25T22:52:56.349Z,3.10
2022-09-25T22:55:25.659Z,2.97
2022-09-25T22:57:59.622Z,3.10
2022-09-25T23:00:26.742Z,3.28
2022-09-25T23:03:02.723Z,3.10
2022-09-25T23:05:30.147Z,4.28
2022-09-25T23:08:03.649Z,5.38
2022-09-25T23:10:48.685Z,4.43
2022-09-25T23:13:24.689Z,3.95
2022-09-25T23:15:51.619Z,3.75
2022-09-25T23:18:24.670Z,3.20
2022-09-25T23:20:54.928Z,3.10
2022-09-25T23:23:34.707Z,2.95
2022-09-25T23:26:09.663Z,2.75
2022-09-25T23:28:39.934Z,2.85
2022-09-25T23:31:19.711Z,2.97
2022-09-25T23:33:46.965Z,3.10
2022-09-25T23:36:18.537Z,2.92
2022-09-25T23:38:52.654Z,3.05
2022-09-25T23:41:22.422Z,2.80
2022-09-25T23:43:56.670Z,2.85
2022-09-25T23:46:25.878Z,2.63
2022-09-25T23:48:59.619Z,3.03
2022-09-25T23:51:26.854Z,3.08
2022-09-25T23:54:01.674Z,2.97
2022-09-25T23:56:31.429Z,3.00
2022-09-25T23:59:05.744Z,2.80
